Time;durP1;ratioP1;P1;durP2;ratioP2;P2;SDS_P1;SDS_P2;PMS_P1;PMS_P2;Temp;Humidity;BMP_temperature;BMP_pressure;BME280_temperature;BME280_humidity;BME280_pressure;Samples;Min_cycle;Max_cycle;Signal;HPM_P1;HPM_P2
2022/01/15 00:01:33;;;;;;;27.17;9.80;;;1.30;99.90;;;;;;4338714;28;657239;-77
2022/01/15 00:04:21;;;;;;;41.43;11.13;;;1.30;99.90;;;;;;4341087;28;656531;-77
2022/01/15 00:07:08;;;;;;;35.13;10.30;;;1.20;99.90;;;;;;4361546;28;656299;-77
2022/01/15 00:09:56;;;;;;;28.23;9.50;;;1.30;99.90;;;;;;4338919;28;657435;-77
2022/01/15 00:12:45;;;;;;;33.70;10.57;;;1.20;99.90;;;;;;4363029;28;655303;-77
2022/01/15 00:15:36;;;;;;;32.30;11.33;;;1.20;99.90;;;;;;4362526;28;656653;-77
2022/01/15 00:18:39;;;;;;;31.13;10.93;;;1.20;99.90;;;;;;4323166;28;657276;-77
2022/01/15 00:21:27;;;;;;;27.73;8.93;;;1.20;99.90;;;;;;4326284;28;656592;-77
2022/01/15 00:24:15;;;;;;;29.00;10.47;;;1.20;99.90;;;;;;4344200;28;655577;-77
2022/01/15 00:27:05;;;;;;;26.50;9.07;;;1.20;99.90;;;;;;4361623;28;657448;-76
2022/01/15 00:29:54;;;;;;;41.87;11.07;;;1.20;99.90;;;;;;4339133;28;656307;-77
2022/01/15 00:32:41;;;;;;;26.33;9.53;;;1.10;99.90;;;;;;4338291;28;656833;-77
2022/01/15 00:35:29;;;;;;;25.70;10.10;;;1.10;99.90;;;;;;4345933;28;657045;-77
2022/01/15 00:38:19;;;;;;;29.47;9.40;;;1.10;99.90;;;;;;4361663;28;657708;-77
2022/01/15 00:41:07;;;;;;;26.53;9.13;;;1.10;99.90;;;;;;4339931;28;655918;-76
2022/01/15 00:43:54;;;;;;;27.67;7.83;;;1.00;99.90;;;;;;4343439;28;655843;-76
2022/01/15 00:46:43;;;;;;;33.37;8.93;;;1.00;99.90;;;;;;4372014;28;656424;-77
2022/01/15 00:49:31;;;;;;;34.77;9.17;;;1.00;99.90;;;;;;4357312;28;656606;-76
2022/01/15 00:52:18;;;;;;;22.37;9.03;;;0.90;99.90;;;;;;4379018;28;655662;-77
2022/01/15 00:55:09;;;;;;;34.57;9.63;;;0.90;99.90;;;;;;4358359;28;656946;-76
2022/01/15 00:57:57;;;;;;;31.33;9.83;;;0.90;99.90;;;;;;4358896;28;657374;-77
2022/01/15 01:00:48;;;;;;;29.20;9.33;;;0.90;99.90;;;;;;4360799;28;655742;-77
2022/01/15 01:03:43;;;;;;;33.17;9.47;;;0.90;99.90;;;;;;4360734;28;655911;-77
2022/01/15 01:06:31;;;;;;;31.55;9.82;;;0.90;99.90;;;;;;4333334;28;656516;-77
2022/01/15 01:09:38;;;;;;;37.47;9.43;;;0.80;99.90;;;;;;4369703;28;655831;-76
2022/01/15 01:12:56;;;;;;;30.97;10.33;;;0.80;99.90;;;;;;4318631;28;656440;-77
2022/01/15 01:25:12;;;;;;;35.33;10.97;;;0.70;99.90;;;;;;4353766;28;657206;-76
2022/01/15 01:28:06;;;;;;;30.48;8.85;;;0.80;99.90;;;;;;4358051;28;657249;-77
2022/01/15 01:30:59;;;;;;;34.83;10.40;;;0.80;99.90;;;;;;4360723;28;655762;-76
2022/01/15 01:33:50;;;;;;;26.43;9.70;;;0.70;99.90;;;;;;4355883;28;657197;-77
2022/01/15 01:36:46;;;;;;;32.07;9.97;;;0.70;99.90;;;;;;4356798;28;655522;-76
2022/01/15 01:39:42;;;;;;;19.30;7.03;;;0.70;99.90;;;;;;4356514;28;656167;-75
2022/01/15 01:42:39;;;;;;;32.03;9.03;;;0.60;99.90;;;;;;4337759;28;655765;-77
2022/01/15 01:45:27;;;;;;;33.63;8.23;;;0.50;99.90;;;;;;4337018;28;656938;-77
2022/01/15 01:48:15;;;;;;;27.57;8.00;;;0.50;99.90;;;;;;4361080;28;655653;-77
2022/01/15 01:51:03;;;;;;;21.83;8.30;;;0.50;99.90;;;;;;4382780;28;656796;-77
2022/01/15 01:53:52;;;;;;;42.03;8.50;;;0.40;99.90;;;;;;4359434;28;655787;-77
2022/01/15 01:56:40;;;;;;;22.53;7.87;;;0.40;99.90;;;;;;4359876;28;655734;-76
2022/01/15 01:59:28;;;;;;;26.83;8.33;;;0.40;99.90;;;;;;4382394;28;656505;-77
2022/01/15 02:02:15;;;;;;;32.30;8.60;;;0.40;99.90;;;;;;4358032;28;655521;-76
2022/01/15 02:05:03;;;;;;;24.07;7.70;;;0.40;99.90;;;;;;4379139;28;656284;-76
2022/01/15 02:07:51;;;;;;;27.03;8.70;;;0.40;99.90;;;;;;4360046;28;655343;-77
2022/01/15 02:10:40;;;;;;;14.97;5.10;;;0.30;99.90;;;;;;4378384;28;655552;-77
2022/01/15 02:13:28;;;;;;;20.00;6.27;;;0.40;99.90;;;;;;4355785;28;655863;-78
2022/01/15 02:16:16;;;;;;;20.57;6.97;;;0.40;99.90;;;;;;4360070;28;655416;-77
2022/01/15 02:19:03;;;;;;;17.07;6.43;;;0.30;99.90;;;;;;4378771;28;655419;-77
2022/01/15 02:24:56;;;;;;;18.13;6.23;;;0.30;99.90;;;;;;4360519;28;655575;-76
2022/01/15 02:27:45;;;;;;;31.00;7.87;;;0.20;99.90;;;;;;4375885;28;654994;-77
2022/01/15 02:30:32;;;;;;;21.13;7.20;;;0.20;99.90;;;;;;4385636;28;656576;-77
2022/01/15 02:33:20;;;;;;;27.03;6.90;;;0.20;99.90;;;;;;4362915;28;655460;-77
2022/01/15 02:36:09;;;;;;;30.57;8.17;;;0.10;99.90;;;;;;4381846;28;656379;-77
2022/01/15 02:38:58;;;;;;;23.80;6.90;;;0.10;99.90;;;;;;4359316;28;656668;-77
2022/01/15 02:41:45;;;;;;;25.90;8.15;;;0.10;99.90;;;;;;4362993;28;655307;-78
2022/01/15 02:44:38;;;;;;;26.23;7.57;;;0.10;99.90;;;;;;4381464;28;655443;-76
2022/01/15 02:50:30;;;;;;;28.50;6.80;;;0.10;99.90;;;;;;4350825;28;655525;-78
2022/01/15 02:53:18;;;;;;;30.33;9.27;;;0.10;99.90;;;;;;4385029;28;656288;-78
2022/01/15 02:56:07;;;;;;;19.77;6.60;;;0.00;99.90;;;;;;4362661;28;656167;-78
2022/01/15 02:58:55;;;;;;;27.70;8.30;;;0.10;99.90;;;;;;4366789;28;655321;-78
2022/01/15 03:01:42;;;;;;;35.63;8.83;;;0.10;99.90;;;;;;4381158;28;656438;-77
2022/01/15 03:04:30;;;;;;;29.53;7.63;;;0.10;99.90;;;;;;4361121;28;655796;-76
2022/01/15 03:07:17;;;;;;;28.90;8.97;;;0.10;99.90;;;;;;4385526;28;656111;-78
2022/01/15 03:10:05;;;;;;;30.90;8.80;;;0.10;99.90;;;;;;4362067;28;655983;-77
2022/01/15 03:12:56;;;;;;;28.53;8.73;;;0.00;99.90;;;;;;4384308;28;656070;-77
2022/01/15 03:15:43;;;;;;;26.93;8.30;;;0.00;99.90;;;;;;4360784;28;655127;-77
2022/01/15 03:18:31;;;;;;;37.00;9.43;;;0.00;99.90;;;;;;4362839;28;655863;-78
2022/01/15 03:21:19;;;;;;;28.70;7.93;;;0.00;99.90;;;;;;4384335;28;655457;-77
2022/01/15 03:24:06;;;;;;;35.57;8.80;;;0.10;99.90;;;;;;4357682;28;656651;-77
2022/01/15 03:26:55;;;;;;;27.73;8.83;;;0.10;99.90;;;;;;4376920;28;655506;-76
2022/01/15 03:29:44;;;;;;;29.03;8.10;;;0.10;99.90;;;;;;4380384;28;656301;-77
2022/01/15 03:32:31;;;;;;;21.67;6.53;;;0.10;99.90;;;;;;4342902;28;657271;-79
2022/01/15 03:35:19;;;;;;;21.67;7.45;;;0.00;99.90;;;;;;4384866;28;656068;-77
2022/01/15 03:38:07;;;;;;;20.83;6.97;;;0.10;99.90;;;;;;4357569;28;656061;-79
2022/01/15 03:40:55;;;;;;;27.52;8.45;;;0.00;99.90;;;;;;4362032;28;655075;-77
2022/01/15 03:43:43;;;;;;;25.27;8.73;;;0.00;99.90;;;;;;4384732;28;656067;-77
2022/01/15 03:46:32;;;;;;;21.50;6.80;;;0.00;99.90;;;;;;4360961;28;655880;-76
2022/01/15 03:49:20;;;;;;;21.00;7.82;;;0.00;99.90;;;;;;4366186;28;655219;-76
2022/01/15 03:52:07;;;;;;;29.17;10.00;;;0.00;99.90;;;;;;4381179;28;655511;-79
2022/01/15 03:54:57;;;;;;;28.00;9.30;;;0.00;99.90;;;;;;4344360;28;657392;-78
2022/01/15 03:57:45;;;;;;;36.53;9.70;;;0.00;99.90;;;;;;4365513;28;655487;-77
2022/01/15 04:00:32;;;;;;;27.10;8.53;;;0.00;99.90;;;;;;4384444;28;655369;-78
2022/01/15 04:03:21;;;;;;;31.47;8.90;;;0.00;99.90;;;;;;4361687;28;656328;-77
2022/01/15 04:06:09;;;;;;;29.63;8.23;;;0.00;99.90;;;;;;4380332;28;655432;-77
2022/01/15 04:08:56;;;;;;;29.80;9.47;;;0.00;99.90;;;;;;4358092;28;657959;-75
2022/01/15 04:11:45;;;;;;;25.83;9.73;;;-0.10;99.90;;;;;;4377085;28;656525;-77
2022/01/15 04:14:32;;;;;;;32.57;9.83;;;-0.10;99.90;;;;;;4383063;28;656933;-77
2022/01/15 04:17:20;;;;;;;31.03;9.27;;;-0.10;99.90;;;;;;4359684;28;656401;-78
2022/01/15 04:20:10;;;;;;;28.17;8.83;;;-0.10;99.90;;;;;;4382431;28;657827;-77
2022/01/15 04:22:58;;;;;;;24.27;9.13;;;-0.10;99.90;;;;;;4360224;28;656441;-77
2022/01/15 04:25:45;;;;;;;26.67;9.90;;;-0.10;99.90;;;;;;4358510;28;656937;-76
2022/01/15 04:28:34;;;;;;;36.03;9.93;;;-0.10;99.90;;;;;;4379386;28;657462;-77
2022/01/15 04:31:21;;;;;;;36.43;9.57;;;-0.10;99.90;;;;;;4356328;28;658125;-76
2022/01/15 04:34:09;;;;;;;30.90;10.40;;;-0.10;99.90;;;;;;4383097;28;656460;-76
2022/01/15 04:37:04;;;;;;;46.77;11.87;;;-0.20;99.90;;;;;;4337770;28;658757;-76
2022/01/15 04:39:51;;;;;;;34.03;11.57;;;-0.10;99.90;;;;;;4353000;28;658456;-77
2022/01/15 04:42:39;;;;;;;36.23;11.90;;;-0.10;99.90;;;;;;4376313;28;658009;-77
2022/01/15 04:45:26;;;;;;;35.23;12.33;;;-0.10;99.90;;;;;;4354132;28;658501;-76
2022/01/15 04:48:14;;;;;;;40.53;12.80;;;-0.10;99.90;;;;;;4379812;28;657638;-76
2022/01/15 04:51:02;;;;;;;23.40;8.90;;;-0.10;99.90;;;;;;4353528;28;659056;-77
2022/01/15 04:53:51;;;;;;;34.90;10.63;;;-0.10;99.90;;;;;;4374778;28;657046;-79
2022/01/15 04:56:39;;;;;;;32.63;10.17;;;-0.10;99.90;;;;;;4377250;28;657660;-77
2022/01/15 04:59:26;;;;;;;38.93;12.13;;;-0.20;99.90;;;;;;4354612;28;658564;-75
2022/01/15 05:02:14;;;;;;;38.10;12.23;;;-0.20;99.90;;;;;;4376523;28;658344;-77
2022/01/15 05:05:01;;;;;;;35.60;10.03;;;-0.20;99.90;;;;;;4354129;28;658867;-77
2022/01/15 05:07:51;;;;;;;37.73;12.17;;;-0.20;99.90;;;;;;4378925;28;657302;-78
2022/01/15 05:10:46;;;;;;;42.53;11.97;;;-0.20;99.90;;;;;;4379638;28;657446;-77
2022/01/15 05:13:36;;;;;;;27.67;9.40;;;-0.20;99.90;;;;;;4353765;28;657770;-79
2022/01/15 05:16:23;;;;;;;28.90;9.63;;;-0.20;99.90;;;;;;4355874;28;656837;-77
2022/01/15 05:19:11;;;;;;;29.97;11.10;;;-0.20;99.90;;;;;;4357357;28;656542;-76
2022/01/15 05:21:58;;;;;;;37.57;9.90;;;-0.20;99.90;;;;;;4379460;28;657975;-78
2022/01/15 05:24:46;;;;;;;33.53;11.33;;;-0.30;99.90;;;;;;4359371;28;656650;-78
2022/01/15 05:27:36;;;;;;;24.73;7.43;;;-0.20;99.90;;;;;;4380648;28;657716;-78
2022/01/15 05:30:24;;;;;;;29.63;11.33;;;-0.20;99.90;;;;;;4358613;28;656712;-76
2022/01/15 05:33:12;;;;;;;28.00;10.93;;;-0.20;99.90;;;;;;4353651;28;658547;-76
2022/01/15 05:36:00;;;;;;;27.10;9.20;;;-0.20;99.90;;;;;;4360161;28;658027;-78
2022/01/15 05:38:47;;;;;;;22.83;8.37;;;-0.20;99.90;;;;;;4378389;28;657949;-77
2022/01/15 05:41:35;;;;;;;35.00;11.23;;;-0.20;99.90;;;;;;4359156;28;656619;-76
2022/01/15 05:44:24;;;;;;;26.10;9.43;;;-0.30;99.90;;;;;;4380067;28;657856;-76
2022/01/15 05:47:11;;;;;;;35.77;10.90;;;-0.30;99.90;;;;;;4354986;28;657547;-76
2022/01/15 05:50:02;;;;;;;39.60;9.70;;;-0.30;99.90;;;;;;4379897;28;657541;-76
2022/01/15 05:52:50;;;;;;;29.57;9.10;;;-0.30;99.90;;;;;;4357306;28;656512;-77
2022/01/15 05:55:38;;;;;;;30.80;10.27;;;-0.40;99.90;;;;;;4381593;28;658113;-77
2022/01/15 05:58:27;;;;;;;35.17;11.57;;;-0.30;99.90;;;;;;4356401;28;658258;-77
2022/01/15 06:01:16;;;;;;;26.77;10.67;;;-0.30;99.90;;;;;;4364280;28;657551;-77
2022/01/15 06:04:03;;;;;;;31.63;10.83;;;-0.30;99.90;;;;;;4382991;28;657365;-76
2022/01/15 06:06:51;;;;;;;33.43;11.23;;;-0.30;99.90;;;;;;4355719;28;658734;-76
2022/01/15 06:09:39;;;;;;;24.65;8.93;;;-0.40;99.90;;;;;;4384053;28;657418;-78
2022/01/15 06:12:30;;;;;;;20.27;8.00;;;-0.40;99.90;;;;;;4358411;28;657692;-75
2022/01/15 06:15:17;;;;;;;29.27;9.57;;;-0.30;99.90;;;;;;4357986;28;656948;-76
2022/01/15 06:18:06;;;;;;;31.37;11.80;;;-0.30;99.90;;;;;;4362284;28;656695;-78
2022/01/15 06:20:54;;;;;;;45.27;11.07;;;-0.40;99.90;;;;;;4383470;28;657713;-77
2022/01/15 06:23:41;;;;;;;29.47;10.13;;;-0.40;99.90;;;;;;4360451;28;658019;-77
2022/01/15 06:26:29;;;;;;;36.57;10.87;;;-0.30;99.90;;;;;;4383386;28;657268;-79
2022/01/15 06:29:20;;;;;;;34.67;10.77;;;-0.30;99.90;;;;;;4356302;28;659453;-76
2022/01/15 06:32:13;;;;;;;28.10;10.73;;;-0.30;99.90;;;;;;4360863;28;657938;-77
2022/01/15 06:35:05;;;;;;;35.17;10.83;;;-0.30;99.90;;;;;;4360280;28;658324;-78
2022/01/15 06:37:54;;;;;;;26.00;10.47;;;-0.30;99.90;;;;;;4356311;28;658586;-78
2022/01/15 06:40:50;;;;;;;24.83;6.70;;;-0.30;99.90;;;;;;4360424;28;658613;-77
2022/01/15 06:43:39;;;;;;;35.90;9.43;;;-0.30;99.90;;;;;;4357661;28;656802;-77
2022/01/15 06:46:26;;;;;;;33.80;10.37;;;-0.30;99.90;;;;;;4357927;28;657381;-78
2022/01/15 06:49:14;;;;;;;31.97;10.60;;;-0.30;99.90;;;;;;4382510;28;657682;-77
2022/01/15 06:52:33;;;;;;;40.10;11.43;;;-0.30;99.90;;;;;;4356721;28;658708;-77
2022/01/15 06:55:21;;;;;;;25.73;9.87;;;-0.30;99.90;;;;;;4360721;28;657721;-76
2022/01/15 06:58:09;;;;;;;46.30;13.13;;;-0.40;99.90;;;;;;4384417;28;656441;-76
2022/01/15 07:00:56;;;;;;;37.13;10.37;;;-0.40;99.90;;;;;;4339214;28;659503;-77
2022/01/15 07:03:44;;;;;;;33.37;10.50;;;-0.40;99.90;;;;;;4367461;28;657626;-76
2022/01/15 07:06:31;;;;;;;34.80;10.70;;;-0.40;99.90;;;;;;4361093;28;658601;-77
2022/01/15 07:09:21;;;;;;;31.77;11.47;;;-0.40;99.90;;;;;;4358231;28;657598;-77
2022/01/15 07:12:10;;;;;;;44.83;12.40;;;-0.40;99.90;;;;;;4361954;28;658223;-77
2022/01/15 07:14:57;;;;;;;31.73;11.93;;;-0.30;99.90;;;;;;4338689;28;658966;-77
2022/01/15 07:17:46;;;;;;;33.07;9.10;;;-0.30;99.90;;;;;;4344752;28;658141;-78
2022/01/15 07:20:33;;;;;;;37.53;11.27;;;-0.30;99.90;;;;;;4367091;28;656916;-76
2022/01/15 07:23:21;;;;;;;35.60;12.77;;;-0.30;99.90;;;;;;4344900;28;657677;-77
2022/01/15 07:26:10;;;;;;;39.37;11.07;;;-0.30;99.90;;;;;;4382023;28;657806;-77
2022/01/15 07:28:58;;;;;;;34.10;12.03;;;-0.30;99.90;;;;;;4359159;28;658323;-76
2022/01/15 07:31:47;;;;;;;35.67;11.57;;;-0.30;99.90;;;;;;4356359;28;657732;-77
2022/01/15 07:34:35;;;;;;;37.17;11.87;;;-0.20;99.90;;;;;;4359799;28;657600;-77
2022/01/15 07:37:22;;;;;;;30.33;11.83;;;-0.20;99.90;;;;;;4382402;28;658689;-77
2022/01/15 07:40:10;;;;;;;38.13;11.73;;;-0.10;99.90;;;;;;4359792;28;657144;-76
2022/01/15 07:42:59;;;;;;;38.53;12.00;;;-0.10;99.90;;;;;;4381428;28;658860;-76
2022/01/15 07:45:47;;;;;;;29.60;10.80;;;-0.10;99.90;;;;;;4357958;28;657880;-77
2022/01/15 07:48:35;;;;;;;36.15;11.57;;;-0.10;99.90;;;;;;4364048;28;658078;-77
2022/01/15 07:51:22;;;;;;;36.80;11.83;;;-0.10;99.90;;;;;;4365513;28;658312;-77
2022/01/15 07:54:10;;;;;;;39.00;12.03;;;-0.10;99.90;;;;;;4342820;28;657654;-78
2022/01/15 07:56:58;;;;;;;38.73;12.47;;;0.00;99.90;;;;;;4369131;28;658451;-78
2022/01/15 07:59:48;;;;;;;42.17;12.23;;;0.00;99.90;;;;;;4359000;28;656708;-77
2022/01/15 08:02:35;;;;;;;45.50;12.83;;;0.10;99.90;;;;;;4357796;28;656721;-77
2022/01/15 08:05:23;;;;;;;28.20;9.47;;;0.10;99.90;;;;;;4383105;28;657225;-77
2022/01/15 08:08:11;;;;;;;39.50;12.47;;;0.20;99.90;;;;;;4357268;28;655386;-77
2022/01/15 08:10:58;;;;;;;42.67;12.25;;;0.20;99.90;;;;;;4363265;28;657020;-76
2022/01/15 08:13:46;;;;;;;36.20;11.97;;;0.20;99.90;;;;;;4359703;28;656962;-77
2022/01/15 08:16:35;;;;;;;28.23;11.40;;;0.20;99.90;;;;;;4382689;28;656574;-76
2022/01/15 08:19:23;;;;;;;31.70;10.10;;;0.20;99.90;;;;;;4356269;28;656576;-76
2022/01/15 08:22:11;;;;;;;39.93;11.27;;;0.30;99.90;;;;;;4360523;28;656597;-76
2022/01/15 08:24:58;;;;;;;44.77;11.90;;;0.40;99.90;;;;;;4383409;28;656746;-76
2022/01/15 08:27:46;;;;;;;34.87;10.73;;;0.40;99.90;;;;;;4359878;28;657236;-77
2022/01/15 08:30:34;;;;;;;35.20;9.57;;;0.50;99.90;;;;;;4361917;28;656902;-76
2022/01/15 08:33:23;;;;;;;29.90;9.43;;;0.50;99.90;;;;;;4340333;28;656853;-78
2022/01/15 08:36:11;;;;;;;26.25;7.93;;;0.50;99.90;;;;;;4361789;28;655562;-77
2022/01/15 08:38:58;;;;;;;37.43;11.03;;;0.50;99.90;;;;;;4362304;28;656165;-77
2022/01/15 08:41:48;;;;;;;33.73;10.40;;;0.50;99.90;;;;;;4356040;28;656874;-77
2022/01/15 08:44:36;;;;;;;31.77;9.33;;;0.50;99.90;;;;;;4343084;28;656898;-79
2022/01/15 08:47:24;;;;;;;34.58;10.40;;;0.50;99.90;;;;;;4383992;28;655600;-77
2022/01/15 08:50:14;;;;;;;33.83;9.90;;;0.50;99.90;;;;;;4352280;28;657952;-77
2022/01/15 08:53:01;;;;;;;36.40;10.03;;;0.50;99.90;;;;;;4361088;28;655649;-77
2022/01/15 08:55:49;;;;;;;38.13;10.43;;;0.70;99.90;;;;;;4378629;28;657012;-78
2022/01/15 08:58:37;;;;;;;32.53;10.73;;;0.60;99.90;;;;;;4355686;28;656841;-77
2022/01/15 09:01:25;;;;;;;31.73;10.00;;;0.60;99.90;;;;;;4371712;28;656545;-78
2022/01/15 09:04:12;;;;;;;31.60;9.00;;;0.70;99.90;;;;;;4378201;28;657621;-79
2022/01/15 09:07:01;;;;;;;28.50;9.43;;;0.70;99.90;;;;;;4360386;28;655564;-77
2022/01/15 09:09:49;;;;;;;40.72;10.98;;;0.60;99.90;;;;;;4379237;28;655385;-77
2022/01/15 09:12:36;;;;;;;30.60;10.57;;;0.70;99.90;;;;;;4355822;28;658366;-78
2022/01/15 09:15:24;;;;;;;26.63;9.37;;;1.00;99.90;;;;;;4382259;28;656652;-77
2022/01/15 09:18:12;;;;;;;41.80;10.23;;;1.40;99.90;;;;;;4357872;28;656096;-79
2022/01/15 09:21:00;;;;;;;24.87;9.30;;;1.50;99.90;;;;;;4359295;28;657282;-79
2022/01/15 09:30:12;;;;;;;28.90;8.87;;;1.90;99.90;;;;;;4369235;28;655524;-77
2022/01/15 09:30:12;;;;;;;24.17;8.50;;;2.90;99.90;;;;;;4356964;28;655853;-78
2022/01/15 09:33:00;;;;;;;27.83;8.50;;;3.60;99.90;;;;;;4359808;28;655993;-77
2022/01/15 09:35:47;;;;;;;31.23;8.50;;;3.90;99.90;;;;;;4381244;28;655725;-78
2022/01/15 09:38:35;;;;;;;23.13;7.57;;;4.10;99.90;;;;;;4359757;28;655958;-77
2022/01/15 09:41:24;;;;;;;19.43;6.30;;;4.40;99.90;;;;;;4377672;28;656753;-79
2022/01/15 09:44:12;;;;;;;27.13;7.80;;;4.40;99.90;;;;;;4360520;28;656879;-79
2022/01/15 09:47:00;;;;;;;21.10;7.47;;;4.10;99.90;;;;;;4361480;28;655748;-79
2022/01/15 09:49:47;;;;;;;21.93;7.20;;;4.00;99.90;;;;;;4365576;28;656297;-78
2022/01/15 09:52:35;;;;;;;21.30;6.93;;;4.30;99.90;;;;;;4360157;28;656419;-78
2022/01/15 09:55:26;;;;;;;23.15;7.90;;;4.60;99.90;;;;;;4383193;28;656144;-79
2022/01/15 09:58:16;;;;;;;24.17;7.17;;;4.90;97.60;;;;;;4377605;28;655724;-78
2022/01/15 10:01:05;;;;;;;20.67;6.63;;;5.00;96.80;;;;;;4382746;28;655906;-78
2022/01/15 10:03:52;;;;;;;18.63;6.83;;;5.40;93.50;;;;;;4356052;28;655650;-78
2022/01/15 10:07:05;;;;;;;21.10;6.47;;;5.70;93.80;;;;;;4357595;28;655586;-78
2022/01/15 10:09:53;;;;;;;18.80;6.83;;;5.30;90.10;;;;;;4356243;28;655741;-77
2022/01/15 10:12:42;;;;;;;18.07;5.83;;;5.60;90.90;;;;;;4360149;28;655515;-76
2022/01/15 10:15:31;;;;;;;21.33;6.43;;;5.80;89.70;;;;;;4359388;28;655994;-78
2022/01/15 10:18:24;;;;;;;29.87;7.93;;;5.30;88.60;;;;;;4382428;28;655831;-78
2022/01/15 10:21:13;;;;;;;26.60;7.70;;;5.50;90.30;;;;;;4360237;28;657056;-76
2022/01/15 10:24:01;;;;;;;23.33;6.37;;;6.10;87.30;;;;;;4360295;28;656121;-78
2022/01/15 10:26:48;;;;;;;24.07;6.70;;;6.60;88.50;;;;;;4383294;28;655460;-78
2022/01/15 10:29:37;;;;;;;23.37;6.67;;;6.40;83.70;;;;;;4355743;28;655974;-77
2022/01/15 10:32:27;;;;;;;23.20;7.07;;;6.40;82.20;;;;;;4364043;28;655376;-77
2022/01/15 10:35:17;;;;;;;23.03;7.90;;;6.70;81.60;;;;;;4370814;28;655800;-78
2022/01/15 10:38:06;;;;;;;18.40;7.40;;;6.60;79.10;;;;;;4369669;28;656344;-77
2022/01/15 10:40:55;;;;;;;23.07;7.43;;;6.60;79.00;;;;;;4382692;28;655487;-77
2022/01/15 10:43:43;;;;;;;25.17;7.47;;;6.80;78.00;;;;;;4360214;28;656525;-77
2022/01/15 10:46:34;;;;;;;24.27;6.53;;;6.60;78.40;;;;;;4360714;28;655793;-79
2022/01/15 10:49:27;;;;;;;17.27;6.57;;;6.10;79.80;;;;;;4359477;28;657469;-77
2022/01/15 10:52:17;;;;;;;20.37;7.43;;;5.90;81.80;;;;;;4329003;28;655589;-77
2022/01/15 10:55:09;;;;;;;21.13;8.10;;;5.90;82.80;;;;;;4348450;28;655622;-77
2022/01/15 10:57:58;;;;;;;20.00;7.57;;;5.90;84.10;;;;;;4324856;28;657316;-78
2022/01/15 11:00:48;;;;;;;23.10;6.90;;;6.20;80.70;;;;;;4344975;28;655519;-76
2022/01/15 11:03:37;;;;;;;21.58;7.07;;;6.80;80.20;;;;;;4345198;28;656172;-77
2022/01/15 11:06:36;;;;;;;20.93;6.57;;;7.20;79.30;;;;;;4344319;28;655769;-76
2022/01/15 11:09:35;;;;;;;22.47;7.73;;;7.60;73.90;;;;;;4337055;28;656351;-77
2022/01/15 11:12:26;;;;;;;27.80;7.93;;;7.20;74.40;;;;;;4341142;28;655511;-70
2022/01/15 11:15:15;;;;;;;18.53;6.40;;;6.50;74.90;;;;;;4341324;28;656057;-77
2022/01/15 11:18:03;;;;;;;23.17;7.83;;;6.60;75.60;;;;;;4366990;28;655690;-76
2022/01/15 11:20:52;;;;;;;21.43;7.37;;;6.20;78.00;;;;;;4344239;28;655895;-77
2022/01/15 11:23:42;;;;;;;17.37;6.53;;;6.50;78.70;;;;;;4359445;28;656264;-77
2022/01/15 11:26:33;;;;;;;21.20;7.83;;;7.60;75.90;;;;;;4345333;28;655520;-77
2022/01/15 11:29:26;;;;;;;20.70;6.60;;;7.90;71.90;;;;;;4345117;28;655494;-78
2022/01/15 11:32:13;;;;;;;22.60;7.40;;;8.00;71.00;;;;;;4344985;28;655393;-76
2022/01/15 11:35:03;;;;;;;22.27;7.13;;;8.20;71.50;;;;;;4341194;28;655976;-78
2022/01/15 11:37:52;;;;;;;28.83;8.23;;;8.80;68.40;;;;;;4343238;28;655745;-76
2022/01/15 11:40:46;;;;;;;19.20;6.77;;;8.70;65.90;;;;;;4344540;28;656273;-77
2022/01/15 11:43:40;;;;;;;14.67;5.60;;;8.30;65.40;;;;;;4345738;28;655147;-79
2022/01/15 11:46:30;;;;;;;19.80;6.93;;;8.50;67.40;;;;;;4344752;28;656154;-80
2022/01/15 11:49:31;;;;;;;19.80;7.20;;;8.50;66.20;;;;;;4345308;28;656935;-75
2022/01/15 11:52:43;;;;;;;24.07;7.67;;;8.80;66.70;;;;;;4344883;28;655518;-78
2022/01/15 11:55:31;;;;;;;18.67;7.23;;;8.70;66.20;;;;;;4344497;28;655330;-75
2022/01/15 11:58:21;;;;;;;21.33;7.50;;;8.20;64.70;;;;;;4367315;28;654941;-76
2022/01/15 12:01:08;;;;;;;22.47;7.80;;;8.20;67.10;;;;;;4343677;28;656008;-75
2022/01/15 12:04:24;;;;;;;22.50;6.43;;;8.00;66.20;;;;;;4342796;28;655294;-75
2022/01/15 12:07:21;;;;;;;20.90;6.85;;;7.70;67.40;;;;;;4337033;28;655971;-79
2022/01/15 12:10:11;;;;;;;19.37;7.50;;;7.70;67.20;;;;;;4341493;28;656051;-76
2022/01/15 12:13:00;;;;;;;24.33;7.77;;;8.00;68.40;;;;;;4358792;28;655383;-76
2022/01/15 12:15:49;;;;;;;22.67;6.83;;;7.90;67.10;;;;;;4362234;28;656602;-77
2022/01/15 12:18:46;;;;;;;18.40;7.47;;;7.80;68.50;;;;;;4344916;28;655818;-76
2022/01/15 12:21:55;;;;;;;17.47;7.00;;;8.40;66.60;;;;;;4362869;28;655917;-76
2022/01/15 12:24:50;;;;;;;19.63;6.93;;;8.80;66.80;;;;;;4344248;28;656447;-75
2022/01/15 12:27:38;;;;;;;22.37;5.73;;;8.80;64.20;;;;;;4344157;28;655554;-76
2022/01/15 12:30:27;;;;;;;20.73;7.67;;;9.00;63.40;;;;;;4343947;28;655724;-77
2022/01/15 12:33:24;;;;;;;17.63;6.10;;;9.60;62.90;;;;;;4347604;28;655947;-76
2022/01/15 12:36:11;;;;;;;16.40;6.07;;;10.00;59.20;;;;;;4339581;28;655861;-76
2022/01/15 12:38:59;;;;;;;21.67;6.90;;;10.40;59.40;;;;;;4365341;28;656191;-80
2022/01/15 12:41:53;;;;;;;22.13;7.57;;;9.90;59.30;;;;;;4341757;28;658255;-75
2022/01/15 12:44:45;;;;;;;18.37;6.47;;;10.00;59.10;;;;;;4342288;28;656694;-77
2022/01/15 12:47:46;;;;;;;19.70;6.10;;;10.20;57.10;;;;;;4341676;28;658811;-76
2022/01/15 12:50:45;;;;;;;22.50;7.57;;;10.40;57.90;;;;;;4340766;28;658013;-77
2022/01/15 12:53:35;;;;;;;24.27;7.87;;;10.50;56.60;;;;;;4337588;28;658502;-76
2022/01/15 12:56:23;;;;;;;21.30;7.17;;;10.60;56.00;;;;;;4340673;28;658588;-75
2022/01/15 12:59:10;;;;;;;17.80;6.80;;;11.30;56.00;;;;;;4341655;28;657953;-75
2022/01/15 13:01:58;;;;;;;23.27;6.67;;;11.30;54.80;;;;;;4359277;28;658829;-81
2022/01/15 13:04:53;;;;;;;23.10;7.40;;;10.80;56.20;;;;;;4340417;28;658058;-76
2022/01/15 13:07:49;;;;;;;25.50;7.73;;;10.30;56.50;;;;;;4336311;28;657866;-75
2022/01/15 13:10:46;;;;;;;20.13;6.73;;;9.70;58.20;;;;;;4335733;28;658466;-75
2022/01/15 13:13:35;;;;;;;21.17;6.87;;;10.70;57.50;;;;;;4342056;28;656819;-73
2022/01/15 13:16:26;;;;;;;21.37;7.53;;;11.00;56.40;;;;;;4340856;28;658628;-75
2022/01/15 13:19:13;;;;;;;19.77;7.37;;;10.90;56.60;;;;;;4341493;28;657845;-76
2022/01/15 13:22:01;;;;;;;27.30;8.70;;;11.70;56.80;;;;;;4338731;28;657642;-75
2022/01/15 13:24:58;;;;;;;20.87;7.07;;;12.00;54.30;;;;;;4359230;28;658011;-74
2022/01/15 13:27:46;;;;;;;25.67;7.37;;;11.10;54.00;;;;;;4336732;28;658686;-76
2022/01/15 13:30:34;;;;;;;27.40;8.00;;;11.40;55.40;;;;;;4362109;28;657902;-78
2022/01/15 13:33:23;;;;;;;28.37;7.30;;;10.90;55.50;;;;;;4334697;28;658717;-75
2022/01/15 13:36:12;;;;;;;24.70;6.90;;;11.80;55.20;;;;;;4339666;28;658095;-77
2022/01/15 13:38:59;;;;;;;22.73;6.97;;;11.60;54.60;;;;;;4340729;28;657770;-75
2022/01/15 13:41:49;;;;;;;18.30;6.37;;;12.20;54.80;;;;;;4358911;28;659454;-75
2022/01/15 13:44:37;;;;;;;19.83;6.67;;;12.20;52.70;;;;;;4336108;28;658874;-80
2022/01/15 13:47:24;;;;;;;23.83;7.67;;;10.70;54.30;;;;;;4346412;28;657826;-75
2022/01/15 13:53:37;;;;;;;25.23;7.88;;;10.80;55.70;;;;;;4340654;28;657811;-74
2022/01/15 13:56:26;;;;;;;29.13;8.07;;;10.30;55.70;;;;;;4313956;28;658256;-75
2022/01/15 13:59:18;;;;;;;24.20;8.10;;;10.00;56.80;;;;;;4357324;28;657381;-75
2022/01/15 14:02:05;;;;;;;26.37;8.33;;;9.70;58.00;;;;;;4339942;28;658382;-74
2022/01/15 14:04:53;;;;;;;31.07;9.33;;;9.30;59.00;;;;;;4360002;28;656317;-75
2022/01/15 14:07:41;;;;;;;30.15;8.50;;;8.90;60.40;;;;;;4340172;28;656705;-75
2022/01/15 14:10:29;;;;;;;28.13;7.93;;;9.30;60.50;;;;;;4361599;28;657367;-75
2022/01/15 14:13:17;;;;;;;29.40;7.90;;;9.20;60.50;;;;;;4340898;28;657513;-74
2022/01/15 14:16:22;;;;;;;22.50;6.83;;;8.50;61.10;;;;;;4343616;28;656509;-76
2022/01/15 14:19:37;;;;;;;17.00;6.37;;;8.80;62.20;;;;;;4321579;28;656700;-76
2022/01/15 14:22:26;;;;;;;23.43;7.80;;;8.90;61.00;;;;;;4342039;28;656774;-76
2022/01/15 14:25:16;;;;;;;21.73;7.50;;;9.00;61.20;;;;;;4367738;28;656822;-76
2022/01/15 14:28:05;;;;;;;22.73;6.93;;;9.00;61.20;;;;;;4343870;28;656562;-76
2022/01/15 14:30:54;;;;;;;25.37;7.70;;;8.70;60.40;;;;;;4344272;28;657119;-75
2022/01/15 14:33:47;;;;;;;25.73;8.33;;;7.90;63.10;;;;;;4344885;28;657510;-76
2022/01/15 14:36:35;;;;;;;31.45;9.10;;;6.90;65.40;;;;;;4318037;28;656523;-75
2022/01/15 14:39:22;;;;;;;24.67;8.50;;;6.10;67.90;;;;;;4366117;28;657807;-75
2022/01/15 14:42:10;;;;;;;37.00;9.80;;;5.10;72.30;;;;;;4344081;28;656825;-76
2022/01/15 14:44:58;;;;;;;29.07;9.23;;;4.40;77.50;;;;;;4367192;28;656843;-74
2022/01/15 14:47:45;;;;;;;44.33;11.20;;;3.90;83.60;;;;;;4342458;28;656886;-76